sensor_id;sensor_type;location;lat;lon;timestamp;pressure;altitude;pressure_sealevel;temperature;humidity
26711;BME280;18311;52.754;18.118;2023-02-23T00:01:42;100931.02;;;12.63;39.42
26711;BME280;18311;52.754;18.118;2023-02-23T00:04:12;100930.53;;;12.93;39.13
26711;BME280;18311;52.754;18.118;2023-02-23T00:06:44;100922.88;;;12.65;39.42
26711;BME280;18311;52.754;18.118;2023-02-23T00:09:14;100919.19;;;12.68;39.42
26711;BME280;18311;52.754;18.118;2023-02-23T00:11:47;100922.59;;;12.32;40.04
26711;BME280;18311;52.754;18.118;2023-02-23T00:14:18;100921.89;;;12.07;40.54
26711;BME280;18311;52.754;18.118;2023-02-23T00:16:49;100917.52;;;12.05;40.62
26711;BME280;18311;52.754;18.118;2023-02-23T00:19:22;100922.69;;;12.09;40.48
26711;BME280;18311;52.754;18.118;2023-02-23T00:21:54;100917.41;;;12.47;39.87
26711;BME280;18311;52.754;18.118;2023-02-23T00:24:27;100912.70;;;12.13;40.52
26711;BME280;18311;52.754;18.118;2023-02-23T00:26:58;100909.09;;;11.94;41.02
26711;BME280;18311;52.754;18.118;2023-02-23T00:29:30;100905.70;;;12.30;40.38
26711;BME280;18311;52.754;18.118;2023-02-23T00:32:02;100907.66;;;12.05;40.81
26711;BME280;18311;52.754;18.118;2023-02-23T00:34:33;100910.88;;;11.93;40.98
26711;BME280;18311;52.754;18.118;2023-02-23T00:37:05;100907.83;;;11.80;41.28
26711;BME280;18311;52.754;18.118;2023-02-23T00:39:37;100907.41;;;12.12;40.75
26711;BME280;18311;52.754;18.118;2023-02-23T00:42:08;100906.73;;;12.27;40.40
26711;BME280;18311;52.754;18.118;2023-02-23T00:44:38;100906.86;;;12.24;40.43
26711;BME280;18311;52.754;18.118;2023-02-23T00:47:12;100906.23;;;12.38;40.34
26711;BME280;18311;52.754;18.118;2023-02-23T00:49:44;100908.50;;;11.85;40.88
26711;BME280;18311;52.754;18.118;2023-02-23T00:52:14;100901.67;;;11.78;41.34
26711;BME280;18311;52.754;18.118;2023-02-23T00:54:45;100904.91;;;11.86;40.86
26711;BME280;18311;52.754;18.118;2023-02-23T00:57:17;100905.39;;;11.53;41.67
26711;BME280;18311;52.754;18.118;2023-02-23T00:59:48;100908.14;;;12.15;40.74
26711;BME280;18311;52.754;18.118;2023-02-23T01:02:19;100909.89;;;12.16;40.64
26711;BME280;18311;52.754;18.118;2023-02-23T01:04:50;100907.10;;;12.38;40.21
26711;BME280;18311;52.754;18.118;2023-02-23T01:07:29;100912.28;;;12.02;40.82
26711;BME280;18311;52.754;18.118;2023-02-23T01:10:00;100904.24;;;12.22;40.57
26711;BME280;18311;52.754;18.118;2023-02-23T01:12:31;100898.88;;;12.02;40.65
26711;BME280;18311;52.754;18.118;2023-02-23T01:15:02;100901.02;;;12.14;40.77
26711;BME280;18311;52.754;18.118;2023-02-23T01:17:34;100897.87;;;11.41;41.76
26711;BME280;18311;52.754;18.118;2023-02-23T01:20:06;100897.79;;;12.26;40.57
26711;BME280;18311;52.754;18.118;2023-02-23T01:22:41;100904.97;;;12.26;40.55
26711;BME280;18311;52.754;18.118;2023-02-23T01:25:12;100893.09;;;12.32;40.43
26711;BME280;18311;52.754;18.118;2023-02-23T01:27:43;100893.14;;;12.11;40.58
26711;BME280;18311;52.754;18.118;2023-02-23T01:30:15;100897.47;;;12.34;40.38
26711;BME280;18311;52.754;18.118;2023-02-23T01:32:46;100900.02;;;12.56;39.97
26711;BME280;18311;52.754;18.118;2023-02-23T01:35:17;100899.30;;;11.93;40.82
26711;BME280;18311;52.754;18.118;2023-02-23T01:37:48;100894.48;;;12.01;40.67
26711;BME280;18311;52.754;18.118;2023-02-23T01:40:22;100887.77;;;11.90;40.94
26711;BME280;18311;52.754;18.118;2023-02-23T01:43:13;100890.71;;;12.05;40.61
26711;BME280;18311;52.754;18.118;2023-02-23T01:45:45;100879.31;;;12.20;40.39
26711;BME280;18311;52.754;18.118;2023-02-23T01:48:21;100880.23;;;11.78;41.18
26711;BME280;18311;52.754;18.118;2023-02-23T01:51:13;100878.54;;;11.76;40.96
26711;BME280;18311;52.754;18.118;2023-02-23T01:53:59;100874.09;;;11.97;40.81
26711;BME280;18311;52.754;18.118;2023-02-23T01:56:24;100875.84;;;11.98;40.70
26711;BME280;18311;52.754;18.118;2023-02-23T01:58:58;100879.26;;;12.01;40.58
26711;BME280;18311;52.754;18.118;2023-02-23T02:01:30;100868.53;;;11.38;41.67
26711;BME280;18311;52.754;18.118;2023-02-23T02:04:04;100867.98;;;11.73;41.33
26711;BME280;18311;52.754;18.118;2023-02-23T02:06:36;100858.39;;;12.28;40.74
26711;BME280;18311;52.754;18.118;2023-02-23T02:09:12;100864.92;;;12.42;40.16
26711;BME280;18311;52.754;18.118;2023-02-23T02:11:45;100866.70;;;12.22;40.38
26711;BME280;18311;52.754;18.118;2023-02-23T02:14:26;100867.80;;;12.18;40.63
26711;BME280;18311;52.754;18.118;2023-02-23T02:22:25;100853.72;;;12.13;40.68
26711;BME280;18311;52.754;18.118;2023-02-23T02:25:18;100848.06;;;12.19;40.18
26711;BME280;18311;52.754;18.118;2023-02-23T02:39:35;100836.30;;;12.03;40.59
26711;BME280;18311;52.754;18.118;2023-02-23T02:47:44;100825.41;;;12.45;39.58
26711;BME280;18311;52.754;18.118;2023-02-23T02:50:18;100828.80;;;12.11;39.84
26711;BME280;18311;52.754;18.118;2023-02-23T02:52:54;100825.39;;;12.26;39.86
26711;BME280;18311;52.754;18.118;2023-02-23T02:55:27;100818.00;;;12.32;39.60
26711;BME280;18311;52.754;18.118;2023-02-23T02:58:01;100823.16;;;11.97;39.96
26711;BME280;18311;52.754;18.118;2023-02-23T03:00:39;100827.92;;;11.90;40.20
26711;BME280;18311;52.754;18.118;2023-02-23T03:03:39;100817.11;;;12.12;39.68
26711;BME280;18311;52.754;18.118;2023-02-23T03:06:43;100825.05;;;11.95;39.74
26711;BME280;18311;52.754;18.118;2023-02-23T03:18:46;100812.44;;;11.97;39.62
26711;BME280;18311;52.754;18.118;2023-02-23T03:25:11;100813.37;;;11.55;39.42
26711;BME280;18311;52.754;18.118;2023-02-23T03:28:17;100808.33;;;11.88;39.29
26711;BME280;18311;52.754;18.118;2023-02-23T03:31:33;100811.80;;;12.50;39.32
26711;BME280;18311;52.754;18.118;2023-02-23T03:34:36;100818.23;;;12.27;38.80
26711;BME280;18311;52.754;18.118;2023-02-23T03:37:27;100808.23;;;11.91;39.29
26711;BME280;18311;52.754;18.118;2023-02-23T03:40:22;100809.10;;;11.71;39.57
26711;BME280;18311;52.754;18.118;2023-02-23T03:43:16;100809.10;;;11.71;39.44
26711;BME280;18311;52.754;18.118;2023-02-23T03:46:06;100814.06;;;12.01;39.24
26711;BME280;18311;52.754;18.118;2023-02-23T03:48:59;100803.39;;;11.79;39.40
26711;BME280;18311;52.754;18.118;2023-02-23T03:51:52;100806.52;;;12.09;38.98
26711;BME280;18311;52.754;18.118;2023-02-23T03:54:45;100806.55;;;11.88;39.13
26711;BME280;18311;52.754;18.118;2023-02-23T03:57:33;100807.13;;;12.16;38.73
26711;BME280;18311;52.754;18.118;2023-02-23T04:00:26;100800.97;;;12.14;38.70
26711;BME280;18311;52.754;18.118;2023-02-23T04:03:17;100793.41;;;11.62;39.41
26711;BME280;18311;52.754;18.118;2023-02-23T04:06:11;100806.09;;;11.99;38.88
26711;BME280;18311;52.754;18.118;2023-02-23T04:09:03;100789.45;;;12.12;38.89
26711;BME280;18311;52.754;18.118;2023-02-23T04:12:06;100794.94;;;12.08;38.74
26711;BME280;18311;52.754;18.118;2023-02-23T04:15:00;100791.89;;;11.97;38.92
26711;BME280;18311;52.754;18.118;2023-02-23T04:17:30;100789.86;;;11.41;39.89
26711;BME280;18311;52.754;18.118;2023-02-23T04:20:09;100776.47;;;11.41;39.65
26711;BME280;18311;52.754;18.118;2023-02-23T04:22:40;100781.03;;;11.59;39.74
26711;BME280;18311;52.754;18.118;2023-02-23T04:25:12;100785.47;;;11.60;39.46
26711;BME280;18311;52.754;18.118;2023-02-23T04:27:45;100781.09;;;11.78;39.44
26711;BME280;18311;52.754;18.118;2023-02-23T04:30:17;100786.10;;;12.06;38.71
26711;BME280;18311;52.754;18.118;2023-02-23T04:32:48;100777.02;;;11.69;39.51
26711;BME280;18311;52.754;18.118;2023-02-23T04:35:19;100779.48;;;11.33;40.14
26711;BME280;18311;52.754;18.118;2023-02-23T04:37:54;100776.59;;;11.79;39.36
26711;BME280;18311;52.754;18.118;2023-02-23T04:40:26;100775.22;;;11.90;39.21
26711;BME280;18311;52.754;18.118;2023-02-23T04:42:57;100772.77;;;11.84;39.31
26711;BME280;18311;52.754;18.118;2023-02-23T04:45:29;100761.19;;;12.04;38.77
26711;BME280;18311;52.754;18.118;2023-02-23T04:47:59;100767.80;;;12.16;38.89
26711;BME280;18311;52.754;18.118;2023-02-23T04:50:31;100758.39;;;11.46;39.63
26711;BME280;18311;52.754;18.118;2023-02-23T04:53:02;100767.56;;;11.81;39.20
26711;BME280;18311;52.754;18.118;2023-02-23T04:55:34;100768.02;;;11.70;39.34
26711;BME280;18311;52.754;18.118;2023-02-23T04:58:04;100763.94;;;11.62;39.78
26711;BME280;18311;52.754;18.118;2023-02-23T05:00:36;100762.22;;;11.61;39.69
26711;BME280;18311;52.754;18.118;2023-02-23T05:03:08;100759.73;;;11.77;39.58
26711;BME280;18311;52.754;18.118;2023-02-23T05:05:39;100752.64;;;12.15;39.09
26711;BME280;18311;52.754;18.118;2023-02-23T05:08:09;100753.41;;;11.98;39.20
26711;BME280;18311;52.754;18.118;2023-02-23T05:10:40;100749.67;;;11.82;39.51
26711;BME280;18311;52.754;18.118;2023-02-23T05:13:12;100742.73;;;11.78;39.47
26711;BME280;18311;52.754;18.118;2023-02-23T05:15:45;100744.31;;;11.82;39.58
26711;BME280;18311;52.754;18.118;2023-02-23T05:18:15;100735.68;;;11.75;39.85
26711;BME280;18311;52.754;18.118;2023-02-23T05:20:47;100741.05;;;11.55;39.86
26711;BME280;18311;52.754;18.118;2023-02-23T05:23:19;100738.25;;;11.37;40.29
26711;BME280;18311;52.754;18.118;2023-02-23T05:25:50;100735.19;;;11.86;39.67
26711;BME280;18311;52.754;18.118;2023-02-23T05:28:21;100738.13;;;12.00;39.42
26711;BME280;18311;52.754;18.118;2023-02-23T05:30:52;100741.56;;;11.83;39.50
26711;BME280;18311;52.754;18.118;2023-02-23T05:33:22;100735.98;;;11.48;40.19
26711;BME280;18311;52.754;18.118;2023-02-23T05:35:53;100732.70;;;12.02;39.57
26711;BME280;18311;52.754;18.118;2023-02-23T05:38:24;100741.77;;;11.79;39.93
26711;BME280;18311;52.754;18.118;2023-02-23T05:40:56;100736.41;;;11.79;39.74
26711;BME280;18311;52.754;18.118;2023-02-23T05:43:27;100735.12;;;11.87;39.80
26711;BME280;18311;52.754;18.118;2023-02-23T05:45:57;100735.74;;;11.94;39.69
26711;BME280;18311;52.754;18.118;2023-02-23T05:48:33;100734.83;;;11.54;40.28
26711;BME280;18311;52.754;18.118;2023-02-23T05:51:11;100727.84;;;11.91;39.81
26711;BME280;18311;52.754;18.118;2023-02-23T05:53:45;100735.56;;;11.58;40.37
26711;BME280;18311;52.754;18.118;2023-02-23T05:56:23;100730.25;;;11.77;40.19
26711;BME280;18311;52.754;18.118;2023-02-23T05:59:06;100730.02;;;11.62;40.44
26711;BME280;18311;52.754;18.118;2023-02-23T06:01:43;100726.48;;;11.41;40.78
26711;BME280;18311;52.754;18.118;2023-02-23T06:04:16;100730.88;;;11.42;40.72
26711;BME280;18311;52.754;18.118;2023-02-23T06:06:51;100721.52;;;11.11;41.36
26711;BME280;18311;52.754;18.118;2023-02-23T06:09:37;100720.97;;;11.44;41.01
26711;BME280;18311;52.754;18.118;2023-02-23T06:12:12;100722.37;;;11.53;40.90
26711;BME280;18311;52.754;18.118;2023-02-23T06:14:44;100727.88;;;11.29;41.04
26711;BME280;18311;52.754;18.118;2023-02-23T06:17:16;100723.56;;;11.66;40.70
26711;BME280;18311;52.754;18.118;2023-02-23T06:19:52;100725.20;;;11.50;41.08
26711;BME280;18311;52.754;18.118;2023-02-23T06:22:27;100720.57;;;11.12;41.47
26711;BME280;18311;52.754;18.118;2023-02-23T06:25:01;100725.26;;;11.88;41.14
26711;BME280;18311;52.754;18.118;2023-02-23T06:27:44;100724.40;;;11.87;40.38
26711;BME280;18311;52.754;18.118;2023-02-23T06:30:16;100730.61;;;11.69;40.54
26711;BME280;18311;52.754;18.118;2023-02-23T06:32:48;100719.02;;;12.27;40.56
26711;BME280;18311;52.754;18.118;2023-02-23T06:35:20;100723.14;;;11.76;40.55
26711;BME280;18311;52.754;18.118;2023-02-23T06:37:58;100722.17;;;11.37;41.42
26711;BME280;18311;52.754;18.118;2023-02-23T06:40:33;100717.30;;;11.47;41.24
26711;BME280;18311;52.754;18.118;2023-02-23T06:43:15;100717.64;;;11.99;40.58
26711;BME280;18311;52.754;18.118;2023-02-23T06:45:53;100717.91;;;11.53;41.07
26711;BME280;18311;52.754;18.118;2023-02-23T06:48:27;100722.52;;;11.89;40.62
26711;BME280;18311;52.754;18.118;2023-02-23T06:50:59;100725.20;;;11.50;41.52
26711;BME280;18311;52.754;18.118;2023-02-23T06:53:39;100724.72;;;11.61;41.13
26711;BME280;18311;52.754;18.118;2023-02-23T06:56:14;100725.27;;;11.48;41.45
26711;BME280;18311;52.754;18.118;2023-02-23T06:58:47;100727.69;;;11.34;41.65
26711;BME280;18311;52.754;18.118;2023-02-23T07:01:22;100726.31;;;11.65;41.29
26711;BME280;18311;52.754;18.118;2023-02-23T07:03:56;100723.88;;;11.79;41.10
26711;BME280;18311;52.754;18.118;2023-02-23T07:06:34;100724.19;;;11.32;41.75
26711;BME280;18311;52.754;18.118;2023-02-23T07:09:11;100661.79;;;11.50;40.92
26711;BME280;18311;52.754;18.118;2023-02-23T07:11:51;100717.78;;;12.15;40.63
26711;BME280;18311;52.754;18.118;2023-02-23T07:14:23;100721.31;;;11.97;40.66
26711;BME280;18311;52.754;18.118;2023-02-23T07:17:17;100724.36;;;11.68;41.32
26711;BME280;18311;52.754;18.118;2023-02-23T07:19:53;100717.50;;;12.02;41.04
26711;BME280;18311;52.754;18.118;2023-02-23T07:22:24;100713.09;;;11.81;41.33
26711;BME280;18311;52.754;18.118;2023-02-23T07:25:01;100716.19;;;11.92;41.34
26711;BME280;18311;52.754;18.118;2023-02-23T07:27:33;100709.61;;;12.18;41.08
26711;BME280;18311;52.754;18.118;2023-02-23T07:30:08;100703.50;;;10.94;42.08
26711;BME280;18311;52.754;18.118;2023-02-23T07:32:40;100709.59;;;11.39;42.14
26711;BME280;18311;52.754;18.118;2023-02-23T07:35:12;100694.46;;;11.59;41.82
26711;BME280;18311;52.754;18.118;2023-02-23T07:37:49;100696.86;;;12.04;41.28
26711;BME280;18311;52.754;18.118;2023-02-23T07:40:21;100687.90;;;12.42;40.60
26711;BME280;18311;52.754;18.118;2023-02-23T07:42:57;100689.59;;;12.25;41.10
26711;BME280;18311;52.754;18.118;2023-02-23T07:45:33;100698.09;;;12.16;41.17
26711;BME280;18311;52.754;18.118;2023-02-23T07:48:13;100699.40;;;12.07;40.95
26711;BME280;18311;52.754;18.118;2023-02-23T07:50:52;100684.43;;;12.40;41.02
26711;BME280;18311;52.754;18.118;2023-02-23T07:53:26;100693.94;;;12.09;41.10
26711;BME280;18311;52.754;18.118;2023-02-23T07:55:57;100682.28;;;11.91;41.56
26711;BME280;18311;52.754;18.118;2023-02-23T07:58:34;100683.31;;;11.68;42.20
26711;BME280;18311;52.754;18.118;2023-02-23T08:01:11;100686.38;;;11.19;43.00
26711;BME280;18311;52.754;18.118;2023-02-23T08:04:04;100685.42;;;11.41;43.06
26711;BME280;18311;52.754;18.118;2023-02-23T08:06:38;100684.89;;;11.93;42.78
26711;BME280;18311;52.754;18.118;2023-02-23T08:09:13;100676.53;;;11.80;41.86
26711;BME280;18311;52.754;18.118;2023-02-23T08:11:45;100673.45;;;12.08;42.01
26711;BME280;18311;52.754;18.118;2023-02-23T08:14:18;100675.11;;;10.70;43.80
26711;BME280;18311;52.754;18.118;2023-02-23T08:16:52;100674.63;;;11.63;43.06
26711;BME280;18311;52.754;18.118;2023-02-23T08:19:28;100669.84;;;12.45;41.98
26711;BME280;18311;52.754;18.118;2023-02-23T08:22:00;100669.84;;;11.09;43.71
26711;BME280;18311;52.754;18.118;2023-02-23T08:24:40;100657.37;;;12.08;42.46
26711;BME280;18311;52.754;18.118;2023-02-23T08:27:13;100659.57;;;12.90;41.23
26711;BME280;18311;52.754;18.118;2023-02-23T08:29:47;100666.26;;;12.27;41.22
26711;BME280;18311;52.754;18.118;2023-02-23T08:32:24;100657.23;;;12.11;42.23
26711;BME280;18311;52.754;18.118;2023-02-23T08:34:57;100668.61;;;11.97;41.90
26711;BME280;18311;52.754;18.118;2023-02-23T08:37:31;100663.63;;;11.88;42.08
26711;BME280;18311;52.754;18.118;2023-02-23T08:40:09;100655.74;;;12.23;42.45
26711;BME280;18311;52.754;18.118;2023-02-23T08:42:44;100647.16;;;12.70;41.45
26711;BME280;18311;52.754;18.118;2023-02-23T08:45:19;100655.77;;;12.94;40.64
26711;BME280;18311;52.754;18.118;2023-02-23T08:47:54;100644.88;;;12.97;40.98
26711;BME280;18311;52.754;18.118;2023-02-23T08:50:26;100642.98;;;12.99;40.75
26711;BME280;18311;52.754;18.118;2023-02-23T08:53:00;100633.86;;;13.54;40.40
26711;BME280;18311;52.754;18.118;2023-02-23T08:55:30;100635.07;;;13.31;40.39
26711;BME280;18311;52.754;18.118;2023-02-23T08:58:03;100641.34;;;12.25;42.03
26711;BME280;18311;52.754;18.118;2023-02-23T09:00:35;100627.61;;;12.32;41.74
26711;BME280;18311;52.754;18.118;2023-02-23T09:03:06;100629.95;;;13.09;41.00
26711;BME280;18311;52.754;18.118;2023-02-23T09:05:37;100622.86;;;12.73;41.44
26711;BME280;18311;52.754;18.118;2023-02-23T09:08:08;100614.08;;;12.52;41.73
26711;BME280;18311;52.754;18.118;2023-02-23T09:10:39;100602.15;;;12.40;41.87
26711;BME280;18311;52.754;18.118;2023-02-23T09:13:11;100607.93;;;13.02;41.26
26711;BME280;18311;52.754;18.118;2023-02-23T09:15:42;100592.55;;;12.54;41.81
26711;BME280;18311;52.754;18.118;2023-02-23T09:18:14;100601.64;;;12.69;41.31
26711;BME280;18311;52.754;18.118;2023-02-23T09:20:45;100591.99;;;12.82;41.57
26711;BME280;18311;52.754;18.118;2023-02-23T09:23:16;100594.45;;;12.87;41.62
26711;BME280;18311;52.754;18.118;2023-02-23T09:25:47;100594.90;;;12.25;42.42
26711;BME280;18311;52.754;18.118;2023-02-23T09:28:19;100583.59;;;13.72;40.39
26711;BME280;18311;52.754;18.118;2023-02-23T09:30:49;100579.30;;;13.19;41.50
26711;BME280;18311;52.754;18.118;2023-02-23T09:33:20;100578.74;;;13.63;40.72
26711;BME280;18311;52.754;18.118;2023-02-23T09:35:51;100587.84;;;14.54;39.81
26711;BME280;18311;52.754;18.118;2023-02-23T09:38:21;100569.22;;;14.82;39.35
26711;BME280;18311;52.754;18.118;2023-02-23T09:40:54;100570.93;;;14.83;38.90
26711;BME280;18311;52.754;18.118;2023-02-23T09:43:42;100567.69;;;15.49;37.91
26711;BME280;18311;52.754;18.118;2023-02-23T09:46:35;100574.99;;;16.58;35.98
26711;BME280;18311;52.754;18.118;2023-02-23T09:49:14;100567.67;;;17.76;34.48
26711;BME280;18311;52.754;18.118;2023-02-23T09:51:46;100567.61;;;18.01;34.11
26711;BME280;18311;52.754;18.118;2023-02-23T09:54:17;100568.54;;;19.53;32.43
26711;BME280;18311;52.754;18.118;2023-02-23T09:56:51;100561.12;;;21.59;30.26
26711;BME280;18311;52.754;18.118;2023-02-23T09:59:25;100567.41;;;22.10;29.48
26711;BME280;18311;52.754;18.118;2023-02-23T10:02:02;100559.88;;;21.73;29.74
26711;BME280;18311;52.754;18.118;2023-02-23T10:04:39;100561.02;;;22.31;29.01
26711;BME280;18311;52.754;18.118;2023-02-23T10:07:33;100552.63;;;24.85;26.65
26711;BME280;18311;52.754;18.118;2023-02-23T10:12:48;100560.80;;;23.20;27.61
26711;BME280;18311;52.754;18.118;2023-02-23T10:15:36;100549.02;;;24.12;26.84
26711;BME280;18311;52.754;18.118;2023-02-23T10:18:29;100549.20;;;23.55;27.56
26711;BME280;18311;52.754;18.118;2023-02-23T10:23:50;100545.53;;;24.20;26.83
26711;BME280;18311;52.754;18.118;2023-02-23T10:26:24;100537.05;;;23.96;27.27
26711;BME280;18311;52.754;18.118;2023-02-23T10:28:57;100538.31;;;22.98;27.73
26711;BME280;18311;52.754;18.118;2023-02-23T10:31:36;100540.07;;;22.21;28.39
26711;BME280;18311;52.754;18.118;2023-02-23T10:34:14;100536.39;;;22.42;28.42
26711;BME280;18311;52.754;18.118;2023-02-23T10:37:02;100533.02;;;23.07;27.87
26711;BME280;18311;52.754;18.118;2023-02-23T10:39:33;100537.67;;;22.28;28.65
26711;BME280;18311;52.754;18.118;2023-02-23T10:42:09;100531.39;;;23.51;27.91
26711;BME280;18311;52.754;18.118;2023-02-23T10:44:44;100526.52;;;23.17;27.60
26711;BME280;18311;52.754;18.118;2023-02-23T10:47:19;100518.91;;;25.71;26.08
26711;BME280;18311;52.754;18.118;2023-02-23T10:49:52;100512.81;;;24.10;27.50
26711;BME280;18311;52.754;18.118;2023-02-23T10:52:31;100520.78;;;24.58;26.56
26711;BME280;18311;52.754;18.118;2023-02-23T10:55:07;100511.87;;;24.20;27.16
26711;BME280;18311;52.754;18.118;2023-02-23T10:57:39;100510.84;;;25.01;26.51
26711;BME280;18311;52.754;18.118;2023-02-23T11:02:49;100495.03;;;24.06;27.32
26711;BME280;18311;52.754;18.118;2023-02-23T11:05:36;100489.88;;;24.03;27.54
26711;BME280;18311;52.754;18.118;2023-02-23T11:13:45;100485.55;;;23.55;27.87
26711;BME280;18311;52.754;18.118;2023-02-23T11:16:27;100475.61;;;24.72;27.24
26711;BME280;18311;52.754;18.118;2023-02-23T11:18:58;100480.25;;;25.05;26.87
26711;BME280;18311;52.754;18.118;2023-02-23T11:21:36;100480.67;;;25.19;26.72
26711;BME280;18311;52.754;18.118;2023-02-23T11:24:28;100473.13;;;26.06;26.17
26711;BME280;18311;52.754;18.118;2023-02-23T11:27:03;100478.98;;;26.44;25.77
26711;BME280;18311;52.754;18.118;2023-02-23T11:29:44;100465.45;;;26.75;25.21
26711;BME280;18311;52.754;18.118;2023-02-23T11:32:42;100459.78;;;26.11;25.71
26711;BME280;18311;52.754;18.118;2023-02-23T11:37:55;100458.52;;;23.80;27.95
26711;BME280;18311;52.754;18.118;2023-02-23T11:40:31;100453.64;;;23.83;28.17
26711;BME280;18311;52.754;18.118;2023-02-23T11:43:07;100452.50;;;24.48;27.71
26711;BME280;18311;52.754;18.118;2023-02-23T11:45:54;100440.51;;;24.59;27.64
26711;BME280;18311;52.754;18.118;2023-02-23T11:50:59;100434.66;;;24.54;27.81
26711;BME280;18311;52.754;18.118;2023-02-23T11:53:43;100433.37;;;25.00;27.27
26711;BME280;18311;52.754;18.118;2023-02-23T11:56:13;100429.56;;;24.85;27.38
26711;BME280;18311;52.754;18.118;2023-02-23T11:58:49;100429.03;;;24.81;27.49
26711;BME280;18311;52.754;18.118;2023-02-23T12:01:41;100422.33;;;25.44;27.13
26711;BME280;18311;52.754;18.118;2023-02-23T12:04:25;100426.03;;;25.35;26.74
26711;BME280;18311;52.754;18.118;2023-02-23T12:12:45;100416.53;;;25.13;27.31
26711;BME280;18311;52.754;18.118;2023-02-23T12:15:19;100414.71;;;24.17;28.38
26711;BME280;18311;52.754;18.118;2023-02-23T12:17:50;100407.33;;;24.36;28.41
26711;BME280;18311;52.754;18.118;2023-02-23T12:20:26;100404.66;;;24.44;27.97
26711;BME280;18311;52.754;18.118;2023-02-23T12:23:01;100395.25;;;23.48;28.50
26711;BME280;18311;52.754;18.118;2023-02-23T12:25:53;100400.75;;;24.02;28.64
26711;BME280;18311;52.754;18.118;2023-02-23T12:34:04;100402.17;;;24.06;28.80
26711;BME280;18311;52.754;18.118;2023-02-23T12:36:44;100388.78;;;23.49;28.80
26711;BME280;18311;52.754;18.118;2023-02-23T12:39:27;100385.56;;;23.36;29.09
26711;BME280;18311;52.754;18.118;2023-02-23T12:47:25;100369.70;;;22.94;29.34
26711;BME280;18311;52.754;18.118;2023-02-23T12:49:55;100358.22;;;23.28;29.39
26711;BME280;18311;52.754;18.118;2023-02-23T12:52:24;100366.15;;;23.21;29.50
26711;BME280;18311;52.754;18.118;2023-02-23T12:54:56;100361.98;;;22.52;30.38
26711;BME280;18311;52.754;18.118;2023-02-23T12:57:36;100357.42;;;22.80;30.01
26711;BME280;18311;52.754;18.118;2023-02-23T13:00:29;100356.41;;;22.43;30.33
26711;BME280;18311;52.754;18.118;2023-02-23T13:06:14;100344.70;;;22.14;30.73
26711;BME280;18311;52.754;18.118;2023-02-23T13:09:02;100340.23;;;22.22;30.84
26711;BME280;18311;52.754;18.118;2023-02-23T13:17:43;100329.83;;;21.40;31.71
26711;BME280;18311;52.754;18.118;2023-02-23T13:20:31;100326.13;;;21.41;32.00
26711;BME280;18311;52.754;18.118;2023-02-23T13:23:09;100322.41;;;21.61;32.00
26711;BME280;18311;52.754;18.118;2023-02-23T13:31:32;100298.77;;;20.63;33.66
26711;BME280;18311;52.754;18.118;2023-02-23T13:34:00;100289.28;;;20.26;33.99
26711;BME280;18311;52.754;18.118;2023-02-23T13:36:33;100285.81;;;20.86;33.51
26711;BME280;18311;52.754;18.118;2023-02-23T13:39:27;100280.36;;;20.14;34.02
26711;BME280;18311;52.754;18.118;2023-02-23T13:53:20;100278.89;;;19.15;35.68
26711;BME280;18311;52.754;18.118;2023-02-23T13:55:46;100274.52;;;18.80;36.45
26711;BME280;18311;52.754;18.118;2023-02-23T13:58:25;100277.69;;;19.08;36.34
26711;BME280;18311;52.754;18.118;2023-02-23T14:01:06;100277.69;;;19.08;36.34
26711;BME280;18311;52.754;18.118;2023-02-23T14:03:56;100277.52;;;18.43;37.49
26711;BME280;18311;52.754;18.118;2023-02-23T14:06:29;100274.40;;;18.81;36.92
26711;BME280;18311;52.754;18.118;2023-02-23T14:09:19;100264.58;;;18.69;37.48
26711;BME280;18311;52.754;18.118;2023-02-23T14:12:29;100262.50;;;18.05;38.49
26711;BME280;18311;52.754;18.118;2023-02-23T14:17:10;100256.69;;;18.66;38.02
26711;BME280;18311;52.754;18.118;2023-02-23T14:19:42;100252.70;;;19.04;37.31
26711;BME280;18311;52.754;18.118;2023-02-23T14:22:15;100249.08;;;18.82;37.80
26711;BME280;18311;52.754;18.118;2023-02-23T14:30:59;100238.09;;;19.49;37.28
26711;BME280;18311;52.754;18.118;2023-02-23T14:36:27;100245.05;;;19.41;37.01
26711;BME280;18311;52.754;18.118;2023-02-23T14:39:14;100237.27;;;19.16;37.48
26711;BME280;18311;52.754;18.118;2023-02-23T14:42:00;100238.20;;;19.26;37.48
26711;BME280;18311;52.754;18.118;2023-02-23T14:44:37;100227.39;;;18.71;38.15
26711;BME280;18311;52.754;18.118;2023-02-23T14:47:20;100228.06;;;19.07;37.71
26711;BME280;18311;52.754;18.118;2023-02-23T14:49:57;100230.59;;;18.88;37.93
26711;BME280;18311;52.754;18.118;2023-02-23T14:52:35;100220.44;;;19.54;37.35
26711;BME280;18311;52.754;18.118;2023-02-23T14:57:44;100211.70;;;18.97;38.44
26711;BME280;18311;52.754;18.118;2023-02-23T15:00:20;100213.09;;;19.24;37.91
26711;BME280;18311;52.754;18.118;2023-02-23T15:02:57;100215.20;;;19.20;37.96
26711;BME280;18311;52.754;18.118;2023-02-23T15:05:44;100213.81;;;19.26;38.14
26711;BME280;18311;52.754;18.118;2023-02-23T15:08:17;100209.50;;;19.23;38.24
26711;BME280;18311;52.754;18.118;2023-02-23T15:10:59;100206.67;;;19.46;38.02
26711;BME280;18311;52.754;18.118;2023-02-23T15:13:36;100204.45;;;18.98;38.78
26711;BME280;18311;52.754;18.118;2023-02-23T15:16:15;100205.48;;;19.39;38.42
26711;BME280;18311;52.754;18.118;2023-02-23T15:18:43;100203.03;;;19.78;37.79
26711;BME280;18311;52.754;18.118;2023-02-23T15:21:19;100195.64;;;19.59;38.09